Ronan, MT (59864)

11:56 PM MDT on July 27, 2015 (GMT -0600)
KC7MRQ Station #1 | | Change Station
CLOSE
Current Station
Personal Weather Station
Location: Ronan, MT
Elevation: 3070 ft
Nearby Weather Stations

Elev 3070 ft 47.53 °N, 114.09 °W | Updated 14 minutes ago

Overcast
Overcast
49.7 °F
Feels Like 50 °F
N
1.0
Wind Variable Wind from ESE
Gusts 2.0 mph

Today
High -- | Low -- °F
--% Chance of Precip.
Yesterday
High -- | Low -- °F
Precip. -- in
6:07 AM 9:17 PM
Waxing Gibbous, 87% visible
Pressure 30.18 in
Visibility 10.0 miles
Clouds Mostly Cloudy 6000 ft
Overcast 10000 ft
Windchill 50 °F
Dew Point 49 °F
Humidity 96%
Rainfall 0.07 in
Snow Depth Not available.
UV 0 out of 12
Pollen 3.60 out of 12
Air Quality Not available.
Flu Activity Not available.
METAR KMSO 280553Z AUTO 35003KT 10SM BKN060 OVC100 10/08 A3018 RMK AO2 SLP220 60005 T01000083 10128 20100 51019

More Conditions Fewer Conditions

Pressure 30.18 in
Visibility 10.0 miles
Clouds Mostly Cloudy 6000 ft
Overcast 10000 ft
Windchill 50 °F
Dew Point 49 °F
Humidity 96%
Rainfall 0.07 in
Snow Depth Not available.
UV 0 out of 12
Pollen 3.60 out of 12
Air Quality Not available.
Flu Activity Not available.
METAR KMSO 280553Z AUTO 35003KT 10SM BKN060 OVC100 10/08 A3018 RMK AO2 SLP220 60005 T01000083 10128 20100 51019

More Conditions Fewer Conditions

10-Day Weather Forecast

×

Almanac

Astronomy

Jul. 27, 2015 Rise Set
Actual Time
Civil Twilight
Nautical Twilight
Astronomical Twilight
Moon
Length of Visible Light
Length of Day
Tomorrow will be .
, % of the Moon is Illuminated

Today's Extremes

State Highs State Lows

Community

WunderPhotos

Upload Photos

1,841,796 photos uploaded!

WunderBlogs® & News

Nearby

Air Quality

  Air Quality AQ Index Pollutant
Not available.

Snow Depth

Station Depth Elevation

Earthquake Activity

City Distance Mag. Time & Date
Minimum magnitude displayed is 2.5.

Coastal Water Temperatures

Place Temperature

Stations

Nearby Weather Stations

Station Location Temp. Windchill Dew Point Humidity Wind Precip. Elev Updated Type